createdAt,value
2023-10-22T00:01:15.329Z,97693.35
2023-10-22T00:06:21.203Z,97683.91
2023-10-22T00:11:26.813Z,97681.80
2023-10-22T00:16:31.001Z,97684.93
2023-10-22T00:21:36.703Z,97676.52
2023-10-22T00:26:42.357Z,97677.01
2023-10-22T00:31:48.111Z,97677.27
2023-10-22T00:36:53.746Z,97677.77
2023-10-22T00:41:57.940Z,97672.33
2023-10-22T00:47:04.058Z,97674.33
2023-10-22T00:52:11.941Z,97671.80
2023-10-22T00:57:18.639Z,97664.30
2023-10-22T01:02:26.245Z,97657.98
2023-10-22T01:07:32.011Z,97651.30
2023-10-22T01:12:39.575Z,97647.23
2023-10-22T01:17:45.370Z,97641.88
2023-10-22T01:22:51.171Z,97640.38
2023-10-22T01:27:59.539Z,97634.94
2023-10-22T01:33:05.419Z,97620.27
2023-10-22T01:38:12.389Z,97610.94
2023-10-22T01:43:18.051Z,97609.63
2023-10-22T01:48:23.767Z,97594.80
2023-10-22T01:53:29.538Z,97593.95
2023-10-22T01:58:35.343Z,97589.16
2023-10-22T02:03:42.107Z,97583.18
2023-10-22T02:08:49.579Z,97570.09
2023-10-22T02:13:55.346Z,97568.83
2023-10-22T02:19:01.571Z,97561.25
2023-10-22T02:24:08.067Z,97556.57
2023-10-22T02:29:14.031Z,97540.50
2023-10-22T02:34:19.666Z,97540.55
2023-10-22T02:39:25.329Z,97538.77
2023-10-22T02:44:29.418Z,97535.65
2023-10-22T02:49:35.072Z,97527.83
2023-10-22T02:54:39.374Z,97523.67
2023-10-22T02:59:45.396Z,97521.75
2023-10-22T03:04:51.607Z,97531.51
2023-10-22T03:09:57.267Z,97537.85
2023-10-22T03:15:03.219Z,97539.04
2023-10-22T03:20:11.917Z,97536.95
2023-10-22T03:25:17.725Z,97533.45
2023-10-22T03:30:23.520Z,97532.38
2023-10-22T03:35:29.229Z,97527.52
2023-10-22T03:40:37.157Z,97525.91
2023-10-22T03:45:42.832Z,97526.08
2023-10-22T03:50:47.446Z,97528.02
2023-10-22T03:55:53.718Z,97528.13
2023-10-22T04:00:59.529Z,97525.54
2023-10-22T04:06:05.385Z,97528.07
2023-10-22T04:11:11.066Z,97533.52
2023-10-22T04:16:19.187Z,97537.94
2023-10-22T04:21:24.943Z,97539.61
2023-10-22T04:26:30.616Z,97547.48
2023-10-22T04:31:37.773Z,97551.35
2023-10-22T04:36:44.218Z,97545.42
2023-10-22T04:41:50.022Z,97540.31
2023-10-22T04:46:55.852Z,97542.58
2023-10-22T04:52:01.566Z,97546.29
2023-10-22T04:57:07.695Z,97543.60
2023-10-22T05:02:13.351Z,97542.52
2023-10-22T05:07:17.599Z,97531.90
2023-10-22T05:12:23.298Z,97531.92
2023-10-22T05:17:29.138Z,97528.80
2023-10-22T05:22:35.876Z,97523.58
2023-10-22T05:27:41.548Z,97517.87
2023-10-22T05:32:47.297Z,97517.34
2023-10-22T05:37:53.310Z,97507.59
2023-10-22T05:42:59.383Z,97503.98
2023-10-22T05:48:05.407Z,97507.43
2023-10-22T05:53:11.128Z,97509.21
2023-10-22T05:58:15.254Z,97498.80
2023-10-22T06:03:20.960Z,97490.30
2023-10-22T06:08:27.598Z,97515.61
2023-10-22T06:13:34.284Z,97542.02
2023-10-22T06:18:40.235Z,97557.08
2023-10-22T06:23:46.173Z,97557.19
2023-10-22T06:28:52.385Z,97557.84
2023-10-22T06:33:58.238Z,97562.30
2023-10-22T06:39:03.937Z,97556.43
2023-10-22T06:44:09.780Z,97558.42
2023-10-22T06:49:15.419Z,97554.01
2023-10-22T06:54:21.367Z,97566.34
2023-10-22T06:59:27.048Z,97574.27
2023-10-22T07:04:32.838Z,97576.47
2023-10-22T07:09:38.568Z,97578.03
2023-10-22T07:14:44.363Z,97585.73
2023-10-22T07:19:50.076Z,97585.30
2023-10-22T07:24:54.162Z,97587.77
2023-10-22T07:29:59.816Z,97587.34
2023-10-22T07:35:06.779Z,97592.40
2023-10-22T07:40:14.704Z,97591.48
2023-10-22T07:45:20.594Z,97591.86
2023-10-22T07:50:26.651Z,97593.75
2023-10-22T07:55:32.569Z,97595.79
2023-10-22T08:00:38.312Z,97594.64
2023-10-22T08:05:43.968Z,97602.63
2023-10-22T08:10:49.727Z,97606.04
2023-10-22T08:15:55.983Z,97603.39
2023-10-22T08:21:05.736Z,97597.72
2023-10-22T08:26:11.559Z,97598.98
2023-10-22T08:31:17.295Z,97600.54
2023-10-22T08:36:23.636Z,97601.71
2023-10-22T08:41:33.835Z,97601.71
2023-10-22T08:46:39.660Z,97607.89
2023-10-22T08:51:45.697Z,97620.25
2023-10-22T08:56:52.648Z,97625.42
2023-10-22T09:01:58.769Z,97622.30
2023-10-22T09:07:04.613Z,97635.02
2023-10-22T09:12:11.803Z,97647.33
2023-10-22T09:17:24.624Z,97637.89
2023-10-22T09:22:30.884Z,97647.53
2023-10-22T09:27:40.918Z,97648.88
2023-10-22T09:32:53.317Z,97647.09
2023-10-22T09:38:01.853Z,97648.52
2023-10-22T09:43:08.021Z,97642.22
2023-10-22T09:48:17.137Z,97646.18
2023-10-22T09:53:28.857Z,97649.15
2023-10-22T09:58:43.750Z,97653.68
2023-10-22T10:03:52.078Z,97654.36
2023-10-22T10:08:58.723Z,97662.00
2023-10-22T10:14:14.698Z,97662.31
2023-10-22T10:19:23.769Z,97659.21
2023-10-22T10:24:34.157Z,97660.42
2023-10-22T10:29:40.389Z,97665.77
2023-10-22T10:34:48.921Z,97671.80
2023-10-22T10:39:55.794Z,97677.16
2023-10-22T10:45:10.047Z,97677.70
2023-10-22T10:50:20.371Z,97679.62
2023-10-22T10:55:36.655Z,97682.48
2023-10-22T11:00:50.818Z,97690.43
2023-10-22T11:06:04.190Z,97697.95
2023-10-22T11:11:18.016Z,97707.40
2023-10-22T11:16:23.999Z,97728.13
2023-10-22T11:21:30.271Z,97738.96
2023-10-22T11:26:36.410Z,97745.88
2023-10-22T11:31:51.493Z,97754.61
2023-10-22T11:37:03.277Z,97764.20
2023-10-22T11:42:12.600Z,97780.27
2023-10-22T11:47:32.503Z,97789.96
2023-10-22T11:52:53.162Z,97802.80
2023-10-22T11:58:00.294Z,97813.71
2023-10-22T12:03:06.207Z,97829.41
2023-10-22T12:08:12.119Z,97833.96
2023-10-22T12:13:17.836Z,97844.09
2023-10-22T12:18:24.931Z,97855.77
2023-10-22T12:23:45.933Z,97852.23
2023-10-22T12:28:53.328Z,97853.98
2023-10-22T12:34:07.454Z,97857.48
2023-10-22T12:39:14.365Z,97872.84
2023-10-22T12:44:23.083Z,97888.92
2023-10-22T12:49:34.345Z,97896.09
2023-10-22T12:54:42.631Z,97904.56
2023-10-22T12:59:49.126Z,97909.09
2023-10-22T13:04:54.993Z,97910.23
2023-10-22T13:10:04.713Z,97917.17
2023-10-22T13:15:12.247Z,97922.44
2023-10-22T13:20:18.101Z,97930.56
2023-10-22T13:25:25.142Z,97941.59
2023-10-22T13:30:31.337Z,97946.76
2023-10-22T13:35:37.586Z,97953.08
2023-10-22T13:40:43.373Z,97961.09
2023-10-22T13:45:49.270Z,97965.28
2023-10-22T13:50:55.098Z,97977.17
2023-10-22T13:56:01.615Z,97985.77
2023-10-22T14:01:13.703Z,97990.39
2023-10-22T14:06:19.984Z,98001.42
2023-10-22T14:11:26.740Z,98009.91
2023-10-22T14:16:32.615Z,98008.98
2023-10-22T14:21:38.279Z,98019.89
2023-10-22T14:26:42.461Z,98023.39
2023-10-22T14:31:48.158Z,98031.09
2023-10-22T14:36:53.930Z,98034.42
2023-10-22T14:41:59.710Z,98044.73
2023-10-22T14:47:05.684Z,98049.67
2023-10-22T14:52:11.928Z,98060.94
2023-10-22T14:57:17.744Z,98073.88
2023-10-22T15:02:23.666Z,98081.02
2023-10-22T15:07:29.998Z,98087.17
2023-10-22T15:12:35.875Z,98090.89
2023-10-22T15:17:41.649Z,98099.03
2023-10-22T15:22:47.524Z,98111.45
2023-10-22T15:27:53.401Z,98122.98
2023-10-22T15:32:59.939Z,98139.52
2023-10-22T15:38:07.947Z,98152.60
2023-10-22T15:43:13.900Z,98161.89
2023-10-22T15:48:21.969Z,98163.89
2023-10-22T15:53:27.994Z,98166.96
2023-10-22T15:58:33.721Z,98171.80
2023-10-22T16:03:37.874Z,98176.71
2023-10-22T16:08:45.088Z,98177.05
2023-10-22T16:13:51.047Z,98189.14
2023-10-22T16:18:58.995Z,98195.06
2023-10-22T16:24:05.389Z,98205.34
2023-10-22T16:29:11.644Z,98218.17
2023-10-22T16:34:20.013Z,98230.33
2023-10-22T16:39:28.107Z,98231.80
2023-10-22T16:44:34.023Z,98246.02
2023-10-22T16:49:39.885Z,98239.06
2023-10-22T16:54:46.995Z,98251.30
2023-10-22T16:59:53.111Z,98255.63
2023-10-22T17:04:58.768Z,98267.48
2023-10-22T17:10:02.937Z,98273.95
2023-10-22T17:15:10.326Z,98281.94
2023-10-22T17:20:16.207Z,98299.84
2023-10-22T17:25:23.735Z,98301.71
2023-10-22T17:30:29.518Z,98301.38
2023-10-22T17:35:35.420Z,98307.39
2023-10-22T17:40:50.400Z,98304.91
2023-10-22T17:46:00.745Z,98306.86
2023-10-22T17:51:07.679Z,98309.96
2023-10-22T17:56:13.972Z,98320.93
2023-10-22T18:01:20.828Z,98325.41
2023-10-22T18:06:30.897Z,98332.92
2023-10-22T18:11:39.640Z,98338.00
2023-10-22T18:16:47.119Z,98344.77
2023-10-22T18:21:55.294Z,98353.73
2023-10-22T18:27:01.550Z,98364.85
2023-10-22T18:32:11.857Z,98377.55
2023-10-22T18:37:17.833Z,98380.71
2023-10-22T18:42:23.821Z,98384.41
2023-10-22T18:47:32.043Z,98394.98
2023-10-22T18:52:39.566Z,98403.73
2023-10-22T18:57:48.020Z,98412.97
2023-10-22T19:02:55.682Z,98418.00
2023-10-22T19:08:01.736Z,98424.73
2023-10-22T19:13:09.355Z,98431.02
2023-10-22T19:18:22.394Z,98437.66
2023-10-22T19:23:28.794Z,98438.42
2023-10-22T19:28:36.455Z,98453.51
2023-10-22T19:33:49.028Z,98462.11
2023-10-22T19:38:55.730Z,98466.36
2023-10-22T19:44:05.536Z,98468.64
2023-10-22T19:49:14.382Z,98472.55
2023-10-22T19:54:34.405Z,98471.64
2023-10-22T19:59:48.593Z,98471.41
2023-10-22T20:05:02.660Z,98476.18
2023-10-22T20:10:31.407Z,98472.36
2023-10-22T20:15:52.327Z,98479.48
2023-10-22T20:21:15.937Z,98473.54
2023-10-22T20:26:26.639Z,98479.96
2023-10-22T20:31:34.700Z,98482.48
2023-10-22T20:37:07.261Z,98488.11
2023-10-22T20:42:13.636Z,98498.06
2023-10-22T20:47:22.268Z,98503.66
2023-10-22T20:52:28.405Z,98507.71
2023-10-22T20:57:39.516Z,98513.83
2023-10-22T21:02:45.565Z,98510.55
2023-10-22T21:07:51.473Z,98512.26
2023-10-22T21:12:55.938Z,98516.79
2023-10-22T21:18:02.052Z,98526.09
2023-10-22T21:23:08.144Z,98524.01
2023-10-22T21:28:18.391Z,98522.32
2023-10-22T21:33:25.706Z,98525.47
2023-10-22T21:38:31.591Z,98525.04
2023-10-22T21:43:35.774Z,98525.02
2023-10-22T21:48:40.720Z,98517.94
2023-10-22T21:53:46.848Z,98524.09
2023-10-22T21:58:52.594Z,98530.51
2023-10-22T22:03:58.706Z,98528.06
2023-10-22T22:09:11.997Z,98531.05
2023-10-22T22:14:19.345Z,98537.46
2023-10-22T22:19:27.394Z,98545.48
2023-10-22T22:24:34.510Z,98546.51
2023-10-22T22:29:40.352Z,98547.78
2023-10-22T22:34:46.068Z,98550.80
2023-10-22T22:39:51.936Z,98555.35
2023-10-22T22:44:57.747Z,98554.31
2023-10-22T22:50:03.534Z,98554.80
2023-10-22T22:55:10.955Z,98551.84
2023-10-22T23:00:18.447Z,98555.18
2023-10-22T23:05:24.649Z,98563.30
2023-10-22T23:10:30.371Z,98560.75
2023-10-22T23:15:38.366Z,98560.04
2023-10-22T23:20:44.737Z,98563.84
2023-10-22T23:25:51.432Z,98569.20
2023-10-22T23:30:57.216Z,98569.19
2023-10-22T23:36:11.412Z,98569.80
2023-10-22T23:41:17.077Z,98578.68
2023-10-22T23:46:23.291Z,98585.42
2023-10-22T23:51:29.103Z,98586.86
2023-10-22T23:56:34.979Z,98593.37
